Time;durP1;ratioP1;P1;durP2;ratioP2;P2;SDS_P1;SDS_P2;PMS_P1;PMS_P2;Temp;Humidity;BMP_temperature;BMP_pressure;BME280_temperature;BME280_humidity;BME280_pressure;Samples;Min_cycle;Max_cycle;Signal;HPM_P1;HPM_P2
2022/04/27 00:02:17;;;;;;;8.70;8.00;;;;;;;9.27;100.00;100679.06;5016899;28;20661;-52
2022/04/27 00:04:42;;;;;;;9.17;8.37;;;;;;;9.30;100.00;100684.25;5018596;28;20194;-52
2022/04/27 00:07:07;;;;;;;10.37;9.47;;;;;;;9.28;100.00;100683.38;5016303;28;20198;-52
2022/04/27 00:09:33;;;;;;;9.87;8.97;;;;;;;9.25;100.00;100679.94;5023664;28;20212;-52
2022/04/27 00:12:01;;;;;;;11.07;10.07;;;;;;;9.24;100.00;100678.22;5022553;28;20275;-52
2022/04/27 00:14:31;;;;;;;10.80;9.70;;;;;;;9.17;100.00;100672.16;5014442;28;20562;-52
2022/04/27 00:16:58;;;;;;;9.97;8.97;;;;;;;9.17;100.00;100666.13;5013012;28;20199;-52
2022/04/27 00:19:24;;;;;;;9.43;8.60;;;;;;;9.18;100.00;100657.50;5014879;28;20360;-52
2022/04/27 00:21:49;;;;;;;10.87;9.97;;;;;;;9.18;100.00;100654.94;5012660;28;20609;-52
2022/04/27 00:24:15;;;;;;;11.07;10.07;;;;;;;9.17;100.00;100666.13;5012753;28;20536;-52
2022/04/27 00:26:41;;;;;;;11.30;10.30;;;;;;;9.14;100.00;100670.44;5012494;28;20287;-52
2022/04/27 00:29:07;;;;;;;9.97;9.07;;;;;;;9.11;100.00;100662.69;5015596;28;20198;-52
2022/04/27 00:31:33;;;;;;;9.90;9.00;;;;;;;9.13;100.00;100660.09;5015527;28;20799;-52
2022/04/27 00:34:00;;;;;;;10.70;9.70;;;;;;;9.14;100.00;100662.69;5017412;28;20234;-52
2022/04/27 00:36:26;;;;;;;10.43;9.53;;;;;;;9.15;100.00;100666.97;5016432;28;20303;-52
2022/04/27 00:38:51;;;;;;;10.23;9.27;;;;;;;9.18;100.00;100673.88;5020288;28;20217;-52
2022/04/27 00:41:18;;;;;;;10.03;9.03;;;;;;;9.21;100.00;100668.75;5018958;28;20203;-52
2022/04/27 00:43:44;;;;;;;11.07;10.07;;;;;;;9.23;100.00;100677.31;5016397;28;20199;-52
2022/04/27 00:46:10;;;;;;;10.40;9.50;;;;;;;9.25;100.00;100680.78;5016878;28;20188;-53
2022/04/27 00:48:36;;;;;;;9.47;8.67;;;;;;;9.26;100.00;100679.06;5008256;28;20306;-53
2022/04/27 00:51:02;;;;;;;10.20;9.30;;;;;;;9.29;100.00;100685.09;5014551;28;20258;-53
2022/04/27 00:53:28;;;;;;;11.00;9.90;;;;;;;9.29;100.00;100679.94;5016955;28;20211;-52
2022/04/27 00:55:54;;;;;;;10.57;9.60;;;;;;;9.29;100.00;100679.09;5019052;28;20274;-53
2022/04/27 00:58:24;;;;;;;10.80;9.77;;;;;;;9.29;100.00;100677.34;5013816;28;20183;-52
2022/04/27 01:00:50;;;;;;;10.40;9.40;;;;;;;9.29;100.00;100676.50;5013662;28;20224;-52
2022/04/27 01:03:16;;;;;;;10.57;9.57;;;;;;;9.27;100.00;100678.22;5018335;28;20184;-52
2022/04/27 01:05:41;;;;;;;10.77;9.87;;;;;;;9.24;100.00;100689.38;5014351;28;20206;-52
2022/04/27 01:08:06;;;;;;;10.47;9.53;;;;;;;9.21;100.00;100691.97;5017889;28;20243;-53
2022/04/27 01:10:32;;;;;;;11.10;10.10;;;;;;;9.21;100.00;100699.72;5018502;28;20219;-57
2022/04/27 01:12:59;;;;;;;11.00;10.00;;;;;;;9.22;100.00;100695.41;5020092;28;20208;-52
2022/04/27 01:15:35;;;;;;;11.63;10.63;;;;;;;9.23;100.00;100705.72;5022776;28;20200;-52
2022/04/27 01:18:02;;;;;;;13.33;12.03;;;;;;;9.21;100.00;100701.44;5020936;28;20201;-52
2022/04/27 01:20:50;;;;;;;13.20;11.93;;;;;;;9.17;100.00;100697.09;5013591;28;20223;-52
2022/04/27 01:23:16;;;;;;;13.03;11.83;;;;;;;9.13;100.00;100691.94;5021344;28;20172;-53
2022/04/27 01:25:48;;;;;;;13.10;11.90;;;;;;;9.12;100.00;100694.50;5020972;28;20194;-52
2022/04/27 01:28:19;;;;;;;13.43;12.23;;;;;;;9.08;100.00;100687.59;5016470;28;20230;-52
2022/04/27 01:30:45;;;;;;;13.57;12.27;;;;;;;9.07;100.00;100691.91;5021623;28;20215;-52
2022/04/27 01:33:12;;;;;;;13.30;12.10;;;;;;;9.06;100.00;100704.84;5020048;28;20210;-52
2022/04/27 01:35:37;;;;;;;12.93;11.63;;;;;;;9.04;100.00;100696.22;5019183;28;20200;-52
2022/04/27 01:38:03;;;;;;;13.57;12.30;;;;;;;9.07;100.00;100693.66;5017994;28;20192;-52
2022/04/27 01:40:31;;;;;;;12.00;10.90;;;;;;;9.07;100.00;100694.50;5013467;28;20242;-52
2022/04/27 01:42:56;;;;;;;12.80;11.63;;;;;;;9.06;100.00;100690.19;5011115;28;20216;-53
2022/04/27 01:45:22;;;;;;;12.93;11.63;;;;;;;9.04;100.00;100686.75;5016126;28;20212;-52
2022/04/27 01:47:48;;;;;;;12.37;11.27;;;;;;;9.02;100.00;100687.59;5015083;28;20504;-52
2022/04/27 01:50:13;;;;;;;12.83;11.63;;;;;;;9.02;100.00;100692.75;5014571;28;20228;-52
2022/04/27 01:55:24;;;;;;;12.43;11.33;;;;;;;9.03;100.00;100692.75;5001703;28;20209;-52
2022/04/27 01:57:49;;;;;;;11.53;10.53;;;;;;;9.03;100.00;100691.91;5023842;28;20197;-54
2022/04/27 02:00:15;;;;;;;11.90;10.80;;;;;;;9.01;100.00;100694.47;5021340;28;20565;-52
2022/04/27 02:02:41;;;;;;;12.17;11.07;;;;;;;8.99;100.00;100703.94;5021328;28;20264;-52
2022/04/27 02:05:07;;;;;;;14.03;12.73;;;;;;;8.98;100.00;100704.81;5008727;28;20282;-52
2022/04/27 02:07:32;;;;;;;13.60;12.40;;;;;;;8.97;100.00;100706.50;5015572;28;20200;-52
2022/04/27 02:09:57;;;;;;;13.33;12.13;;;;;;;8.98;100.00;100705.66;5014054;28;20210;-53
2022/04/27 02:12:23;;;;;;;13.43;12.13;;;;;;;9.00;100.00;100703.06;5012502;28;20752;-52
2022/04/27 02:14:48;;;;;;;12.97;11.63;;;;;;;9.02;100.00;100701.34;5012850;28;20827;-52
2022/04/27 02:17:14;;;;;;;12.00;10.90;;;;;;;9.05;100.00;100698.78;5018593;28;20188;-53
2022/04/27 02:19:39;;;;;;;12.90;11.70;;;;;;;9.08;100.00;100698.81;5015240;28;20345;-53
2022/04/27 02:22:05;;;;;;;13.47;12.23;;;;;;;9.11;100.00;100704.00;5019127;28;20553;-53
2022/04/27 02:24:31;;;;;;;12.27;11.10;;;;;;;9.14;100.00;100700.53;5025227;28;20188;-52
2022/04/27 02:26:56;;;;;;;11.57;10.57;;;;;;;9.15;100.00;100708.28;5018053;28;20611;-53
2022/04/27 02:29:22;;;;;;;11.33;10.33;;;;;;;9.17;100.00;100710.91;5017777;28;20187;-52
2022/04/27 02:31:48;;;;;;;11.60;10.60;;;;;;;9.19;100.00;100710.88;5023861;28;20295;-53
2022/04/27 02:34:13;;;;;;;13.37;12.17;;;;;;;9.17;100.00;100710.00;5020324;28;20199;-53
2022/04/27 02:36:39;;;;;;;15.07;13.67;;;;;;;9.11;100.00;100708.28;5019582;28;20223;-53
2022/04/27 02:39:04;;;;;;;14.17;12.97;;;;;;;9.07;100.00;100709.16;5016836;28;20196;-52
2022/04/27 02:41:29;;;;;;;15.53;14.03;;;;;;;9.04;100.00;100706.53;5012496;28;20208;-52
2022/04/27 02:43:55;;;;;;;14.03;12.73;;;;;;;9.03;100.00;100708.25;5011768;28;20603;-52
2022/04/27 02:46:21;;;;;;;14.77;13.37;;;;;;;9.00;100.00;100714.28;5011553;28;20958;-52
2022/04/27 02:51:49;;;;;;;14.63;13.33;;;;;;;9.00;100.00;100714.28;5021857;28;20226;-52
2022/04/27 02:54:16;;;;;;;16.33;14.83;;;;;;;8.96;100.00;100715.09;5014517;28;20245;-52
2022/04/27 02:56:42;;;;;;;14.83;13.47;;;;;;;8.97;100.00;100718.56;5012766;28;20241;-52
2022/04/27 02:59:08;;;;;;;14.43;13.13;;;;;;;8.95;100.00;100712.53;5009858;28;20279;-52
2022/04/27 03:01:33;;;;;;;14.27;12.97;;;;;;;8.94;100.00;100716.81;5019779;28;20214;-52
2022/04/27 03:03:59;;;;;;;15.97;14.37;;;;;;;8.97;100.00;100723.72;5020020;28;20207;-52
2022/04/27 03:06:24;;;;;;;15.73;14.23;;;;;;;8.96;100.00;100727.16;5017893;28;20195;-52
2022/04/27 03:08:49;;;;;;;16.67;15.03;;;;;;;8.96;100.00;100722.00;5021444;28;20580;-52
2022/04/27 03:11:14;;;;;;;15.33;13.93;;;;;;;8.97;100.00;100721.16;5019816;28;20711;-53
2022/04/27 03:13:40;;;;;;;15.73;14.33;;;;;;;8.98;100.00;100723.72;5014791;28;20707;-53
2022/04/27 03:16:05;;;;;;;15.67;14.27;;;;;;;8.98;100.00;100723.72;5021449;28;20562;-53
2022/04/27 03:18:31;;;;;;;15.70;14.27;;;;;;;8.97;100.00;100723.72;5017853;28;20199;-53
2022/04/27 03:20:56;;;;;;;16.60;15.00;;;;;;;8.98;100.00;100726.31;5016444;28;20364;-53
2022/04/27 03:23:22;;;;;;;15.30;13.90;;;;;;;9.00;100.00;100729.75;5019305;28;20636;-52
2022/04/27 03:25:47;;;;;;;15.70;14.20;;;;;;;9.02;100.00;100731.50;5014466;28;20194;-51
2022/04/27 03:28:13;;;;;;;15.83;14.33;;;;;;;9.04;100.00;100728.03;5020176;28;20223;-51
2022/04/27 03:30:38;;;;;;;16.80;15.20;;;;;;;9.05;100.00;100728.94;5016401;28;20235;-52
2022/04/27 03:33:04;;;;;;;16.43;14.93;;;;;;;9.03;100.00;100728.06;5014677;28;20210;-52
2022/04/27 03:35:30;;;;;;;15.50;14.00;;;;;;;9.02;100.00;100728.91;5009156;28;20682;-51
2022/04/27 03:37:57;;;;;;;15.40;14.00;;;;;;;9.02;100.00;100729.75;5012270;28;20569;-51
2022/04/27 03:40:23;;;;;;;15.50;14.10;;;;;;;9.00;100.00;100737.50;5008890;28;20226;-51
2022/04/27 03:42:48;;;;;;;15.83;14.33;;;;;;;8.98;100.00;100736.63;5014934;28;20184;-52
2022/04/27 03:45:13;;;;;;;15.53;13.97;;;;;;;8.97;100.00;100736.63;5018426;28;21386;-52
2022/04/27 03:47:39;;;;;;;14.37;13.07;;;;;;;8.97;100.00;100739.22;5021160;28;20262;-51
2022/04/27 03:50:05;;;;;;;15.53;14.10;;;;;;;8.96;100.00;100733.16;5017785;28;20291;-51
2022/04/27 03:52:31;;;;;;;14.57;13.27;;;;;;;8.98;100.00;100736.63;5010392;28;20230;-54
2022/04/27 03:55:00;;;;;;;14.37;13.07;;;;;;;8.99;100.00;100740.09;5017824;28;20207;-53
2022/04/27 03:57:29;;;;;;;14.90;13.60;;;;;;;9.00;100.00;100741.78;5018857;28;20198;-52
2022/04/27 03:59:54;;;;;;;15.13;13.70;;;;;;;9.03;100.00;100740.97;5021571;28;20246;-52
2022/04/27 04:02:20;;;;;;;14.77;13.30;;;;;;;9.02;100.00;100753.00;5013557;28;20661;-53
2022/04/27 04:04:45;;;;;;;15.17;13.77;;;;;;;9.00;100.00;100749.53;5014411;28;20195;-53
2022/04/27 04:07:12;;;;;;;15.20;13.80;;;;;;;8.99;100.00;100748.69;5021243;28;20619;-52
2022/04/27 04:09:38;;;;;;;15.63;14.17;;;;;;;8.99;100.00;100758.16;5027080;28;20209;-52
2022/04/27 04:12:05;;;;;;;15.77;14.27;;;;;;;8.98;100.00;100754.69;5023108;28;20711;-52
2022/04/27 04:14:30;;;;;;;16.67;14.97;;;;;;;8.95;100.00;100756.41;5010689;28;20645;-52
2022/04/27 04:16:56;;;;;;;15.80;14.30;;;;;;;8.95;100.00;100754.69;5015289;28;20260;-52
2022/04/27 04:19:21;;;;;;;17.90;16.20;;;;;;;8.96;100.00;100753.81;5017045;28;20190;-53
2022/04/27 04:21:46;;;;;;;18.23;16.50;;;;;;;8.95;100.00;100765.00;5018190;28;20188;-53
2022/04/27 04:24:11;;;;;;;16.93;15.33;;;;;;;8.93;100.00;100774.44;5017864;28;20188;-53
2022/04/27 04:29:21;;;;;;;17.27;15.57;;;;;;;8.91;100.00;100773.59;5011392;28;20210;-53
2022/04/27 04:31:46;;;;;;;16.83;15.23;;;;;;;8.92;100.00;100774.47;5014644;28;20192;-53
2022/04/27 04:34:12;;;;;;;18.17;16.40;;;;;;;8.92;100.00;100783.09;5015983;28;20215;-53
2022/04/27 04:36:37;;;;;;;16.97;15.37;;;;;;;8.93;100.00;100784.78;5011651;28;20299;-53
2022/04/27 04:39:03;;;;;;;17.03;15.23;;;;;;;8.97;100.00;100785.69;5011167;28;20195;-54
2022/04/27 04:41:28;;;;;;;18.43;16.63;;;;;;;8.98;100.00;100790.00;5014694;28;20288;-54
2022/04/27 04:43:53;;;;;;;18.03;16.37;;;;;;;9.01;100.00;100792.56;5014117;28;20193;-53
2022/04/27 04:46:19;;;;;;;18.93;17.07;;;;;;;9.04;100.00;100792.59;5011601;28;20703;-53
2022/04/27 04:48:44;;;;;;;19.83;17.90;;;;;;;9.06;100.00;100797.78;5009535;28;20319;-53
2022/04/27 04:51:09;;;;;;;18.70;16.80;;;;;;;9.05;100.00;100799.47;5015754;28;20283;-53
2022/04/27 04:53:35;;;;;;;18.37;16.67;;;;;;;9.04;100.00;100802.91;5019384;28;20645;-53
2022/04/27 04:56:00;;;;;;;18.20;16.40;;;;;;;9.03;100.00;100801.19;5017187;28;20204;-51
2022/04/27 04:58:25;;;;;;;19.20;17.30;;;;;;;9.00;100.00;100803.75;5010879;28;20187;-53
2022/04/27 05:00:51;;;;;;;20.10;18.17;;;;;;;8.97;100.00;100802.03;5009820;28;20327;-54
2022/04/27 05:03:16;;;;;;;19.73;17.83;;;;;;;8.96;100.00;100802.03;5020357;28;20225;-53
2022/04/27 05:05:42;;;;;;;20.03;18.03;;;;;;;8.96;100.00;100809.75;5017389;28;20673;-53
2022/04/27 05:08:09;;;;;;;19.30;17.40;;;;;;;8.96;100.00;100813.19;5018598;28;20552;-53
2022/04/27 05:10:35;;;;;;;19.97;18.00;;;;;;;8.97;100.00;100807.19;5015992;28;20219;-54
2022/04/27 05:13:00;;;;;;;19.57;17.77;;;;;;;9.03;100.00;100818.41;5024317;28;20984;-52
2022/04/27 05:15:26;;;;;;;18.40;16.63;;;;;;;9.07;100.00;100813.28;5021318;28;20290;-53
2022/04/27 05:17:51;;;;;;;19.50;17.63;;;;;;;9.12;100.00;100809.00;5019546;28;20199;-53
2022/04/27 05:20:16;;;;;;;20.93;18.80;;;;;;;9.20;100.00;100818.50;5014094;28;20215;-52
2022/04/27 05:22:43;;;;;;;20.70;18.70;;;;;;;9.23;100.00;100826.25;5006801;28;20211;-52
2022/04/27 05:25:09;;;;;;;21.73;19.60;;;;;;;9.25;100.00;100820.25;5026171;28;20202;-52
2022/04/27 05:27:38;;;;;;;20.67;18.63;;;;;;;9.29;100.00;100822.00;5020706;28;20200;-52
2022/04/27 05:32:51;;;;;;;20.83;18.77;;;;;;;9.39;100.00;100822.91;5009892;28;20211;-53
2022/04/27 05:35:17;;;;;;;25.63;23.03;;;;;;;9.41;100.00;100826.34;5014422;28;20650;-52
2022/04/27 05:37:43;;;;;;;26.47;23.97;;;;;;;9.43;100.00;100829.81;5009654;28;20218;-53
2022/04/27 05:40:10;;;;;;;26.50;24.00;;;;;;;9.44;100.00;100828.09;5015377;28;20298;-52
2022/04/27 05:42:36;;;;;;;25.53;22.93;;;;;;;9.44;100.00;100831.56;5011689;28;20739;-53
2022/04/27 05:45:03;;;;;;;25.53;23.03;;;;;;;9.42;100.00;100830.69;5013629;28;20367;-53
2022/04/27 05:47:29;;;;;;;23.70;21.50;;;;;;;9.45;100.00;100834.97;5021976;28;20199;-53
2022/04/27 05:49:54;;;;;;;25.17;22.67;;;;;;;9.51;100.00;100831.56;5018534;28;20261;-53
2022/04/27 05:52:20;;;;;;;25.57;23.17;;;;;;;9.64;100.00;100837.66;5024455;28;20208;-53
2022/04/27 05:54:49;;;;;;;23.07;20.93;;;;;;;9.80;100.00;100839.44;5023920;28;20231;-53
2022/04/27 05:57:15;;;;;;;23.10;20.90;;;;;;;9.95;100.00;100842.91;5017943;28;20577;-52
2022/04/27 05:59:42;;;;;;;21.87;19.87;;;;;;;10.05;100.00;100844.66;5023553;28;20223;-52
2022/04/27 06:02:07;;;;;;;22.93;20.77;;;;;;;10.21;100.00;100849.00;5022533;28;20531;-51
2022/04/27 06:04:33;;;;;;;22.53;20.37;;;;;;;10.36;100.00;100857.63;5027282;28;20237;-51
2022/04/27 06:06:58;;;;;;;20.73;18.73;;;;;;;10.46;100.00;100861.97;5022816;28;20472;-53
2022/04/27 06:09:23;;;;;;;20.20;18.40;;;;;;;10.60;100.00;100866.31;5018386;28;20187;-53
2022/04/27 06:11:49;;;;;;;20.60;18.63;;;;;;;10.72;100.00;100865.44;5024370;28;20234;-53
2022/04/27 06:14:14;;;;;;;20.13;18.27;;;;;;;10.82;100.00;100868.03;5016782;28;20216;-52
2022/04/27 06:16:39;;;;;;;20.63;18.63;;;;;;;10.87;100.00;100872.34;5026252;28;20202;-53
2022/04/27 06:19:05;;;;;;;20.50;18.50;;;;;;;10.91;100.00;100874.06;5027115;28;20190;-53
2022/04/27 06:21:32;;;;;;;18.87;17.13;;;;;;;10.93;100.00;100874.94;5030929;28;20219;-52
2022/04/27 06:23:58;;;;;;;19.93;18.13;;;;;;;10.95;100.00;100881.84;5025670;28;20593;-52
2022/04/27 06:26:24;;;;;;;20.80;18.80;;;;;;;10.98;100.00;100886.16;5017862;28;20278;-53
2022/04/27 06:28:49;;;;;;;21.17;19.10;;;;;;;10.96;100.00;100881.00;5021541;28;20242;-53
2022/04/27 06:31:14;;;;;;;20.07;18.17;;;;;;;10.99;100.00;100882.69;5023123;28;20208;-52
2022/04/27 06:33:40;;;;;;;19.50;17.60;;;;;;;11.03;100.00;100878.38;5021744;28;20223;-52
2022/04/27 06:36:05;;;;;;;19.90;18.00;;;;;;;11.10;100.00;100878.34;5016166;28;20630;-52
2022/04/27 06:38:31;;;;;;;22.43;20.33;;;;;;;11.10;100.00;100880.09;5023142;28;20626;-52
2022/04/27 06:40:56;;;;;;;22.00;19.70;;;;;;;11.19;100.00;100881.81;5016609;28;20626;-53
2022/04/27 06:43:22;;;;;;;21.73;19.63;;;;;;;11.29;100.00;100886.94;5025674;28;20188;-52
2022/04/27 06:45:47;;;;;;;20.43;18.63;;;;;;;11.44;100.00;100887.78;5015593;28;20707;-52
2022/04/27 06:48:13;;;;;;;22.00;19.90;;;;;;;11.59;100.00;100886.88;5013222;28;20188;-53
2022/04/27 06:50:38;;;;;;;20.93;18.93;;;;;;;11.71;100.00;100892.00;5020628;28;20985;-53
2022/04/27 06:53:04;;;;;;;23.00;20.80;;;;;;;11.82;100.00;100886.78;5028153;28;20238;-52
2022/04/27 06:55:30;;;;;;;22.63;20.50;;;;;;;11.74;100.00;100897.19;5026941;28;20195;-53
2022/04/27 06:57:55;;;;;;;23.50;21.30;;;;;;;11.89;100.00;100893.66;5025861;28;20540;-52
2022/04/27 07:00:21;;;;;;;22.90;20.80;;;;;;;11.92;100.00;100895.38;5026720;28;20561;-52
2022/04/27 07:02:47;;;;;;;23.40;21.13;;;;;;;12.17;100.00;100901.34;5023863;28;20206;-52
2022/04/27 07:05:17;;;;;;;22.77;20.47;;;;;;;12.34;100.00;100900.34;5021419;28;20196;-54
2022/04/27 07:07:43;;;;;;;24.20;21.90;;;;;;;12.54;100.00;100901.97;5021262;28;20190;-53
2022/04/27 07:10:10;;;;;;;23.40;21.30;;;;;;;12.74;100.00;100900.09;5017514;28;20649;-52
2022/04/27 07:12:35;;;;;;;21.17;19.23;;;;;;;13.05;100.00;100904.13;5011549;28;20202;-52
2022/04/27 07:15:00;;;;;;;21.57;19.57;;;;;;;13.31;100.00;100893.50;5014245;28;20258;-53
2022/04/27 07:17:26;;;;;;;21.77;19.63;;;;;;;13.58;100.00;100896.69;5009965;28;20558;-53
2022/04/27 07:19:51;;;;;;;23.03;20.87;;;;;;;13.94;99.00;100902.34;5012249;28;20885;-53
2022/04/27 07:22:17;;;;;;;23.60;21.43;;;;;;;13.85;96.94;100900.72;5017677;28;20206;-51
2022/04/27 07:24:44;;;;;;;20.70;18.87;;;;;;;13.93;98.23;100903.22;5009704;28;20187;-51
2022/04/27 07:27:10;;;;;;;20.20;18.40;;;;;;;14.04;98.33;100903.06;5017296;28;20195;-53
2022/04/27 07:29:36;;;;;;;19.40;17.70;;;;;;;13.97;98.14;100909.22;5019659;28;20207;-53
2022/04/27 07:32:01;;;;;;;22.70;20.60;;;;;;;13.75;97.71;100906.91;5012559;28;20195;-53
2022/04/27 07:34:27;;;;;;;21.43;19.33;;;;;;;14.05;96.22;100910.00;5015919;28;20196;-53
2022/04/27 07:36:53;;;;;;;20.80;18.90;;;;;;;14.38;94.06;100909.53;5025136;28;20195;-52
2022/04/27 07:39:18;;;;;;;19.47;17.73;;;;;;;14.37;94.11;100919.06;5011211;28;20268;-53
2022/04/27 07:41:45;;;;;;;18.67;16.97;;;;;;;14.45;94.70;100914.63;5011518;28;20214;-53
2022/04/27 07:44:14;;;;;;;20.03;18.23;;;;;;;14.37;93.75;100913.88;5021491;28;20294;-52
2022/04/27 07:46:39;;;;;;;18.33;16.63;;;;;;;14.53;93.83;100918.84;5020900;28;20196;-53
2022/04/27 07:49:05;;;;;;;19.30;17.63;;;;;;;14.65;92.80;100916.06;5017660;28;20258;-53
2022/04/27 07:51:30;;;;;;;20.13;18.33;;;;;;;14.89;92.53;100919.19;5014733;28;20246;-53
2022/04/27 07:53:55;;;;;;;20.87;19.07;;;;;;;15.13;91.70;100915.28;5020398;28;20293;-53
2022/04/27 07:56:21;;;;;;;19.97;18.10;;;;;;;15.11;92.04;100916.22;5021225;28;20542;-53
2022/04/27 07:58:46;;;;;;;19.67;17.87;;;;;;;15.13;91.58;100922.25;5020418;28;20195;-53
2022/04/27 08:01:11;;;;;;;19.77;17.97;;;;;;;14.90;92.40;100932.19;5025173;28;20687;-51
2022/04/27 08:03:37;;;;;;;17.17;15.63;;;;;;;14.46;91.15;100933.69;5017198;28;20610;-54
2022/04/27 08:06:04;;;;;;;16.93;15.50;;;;;;;14.30;92.42;100935.69;5025756;28;20221;-50
2022/04/27 08:08:30;;;;;;;16.77;15.27;;;;;;;14.13;92.52;100941.13;5020943;28;20201;-53
2022/04/27 08:10:56;;;;;;;16.53;14.93;;;;;;;14.22;92.45;100932.34;5017427;28;20233;-53
2022/04/27 08:13:22;;;;;;;15.20;13.90;;;;;;;14.40;92.27;100932.06;5015556;28;20283;-52
2022/04/27 08:15:47;;;;;;;15.80;14.40;;;;;;;14.37;92.55;100939.06;5019180;28;20269;-53
2022/04/27 08:18:13;;;;;;;16.17;14.57;;;;;;;13.73;92.90;100942.47;5020364;28;20208;-53
2022/04/27 08:23:29;;;;;;;13.90;12.57;;;;;;;14.22;93.23;100946.19;5024355;28;20249;-53
2022/04/27 08:25:56;;;;;;;13.47;12.27;;;;;;;14.16;93.13;100943.66;5010088;28;20184;-53
2022/04/27 08:28:21;;;;;;;11.63;10.63;;;;;;;13.99;92.53;100947.34;5016420;28;20230;-52
2022/04/27 08:30:48;;;;;;;11.03;10.03;;;;;;;13.56;93.03;100948.72;5014242;28;20219;-53
2022/04/27 08:33:14;;;;;;;11.37;10.37;;;;;;;13.46;92.61;100952.28;5018089;28;20221;-53
2022/04/27 08:35:40;;;;;;;10.97;9.97;;;;;;;13.82;92.95;100951.91;5018641;28;20733;-52
2022/04/27 08:38:07;;;;;;;13.07;11.97;;;;;;;13.96;93.21;100952.63;5017520;28;20271;-53
2022/04/27 08:40:37;;;;;;;13.83;12.63;;;;;;;13.75;93.48;100953.75;5025443;28;20219;-53
2022/04/27 08:43:03;;;;;;;13.13;11.93;;;;;;;13.52;94.10;100956.59;5020147;28;20206;-53
2022/04/27 08:45:29;;;;;;;14.17;12.67;;;;;;;13.57;94.66;100946.97;5017949;28;20199;-52
2022/04/27 08:47:56;;;;;;;13.33;12.13;;;;;;;13.60;94.66;100956.50;5020470;28;20183;-53
2022/04/27 08:50:23;;;;;;;13.33;12.13;;;;;;;13.76;94.60;100960.66;5012016;28;20219;-53
2022/04/27 08:52:50;;;;;;;13.90;12.50;;;;;;;13.75;94.08;100961.53;5017611;28;20211;-51
2022/04/27 08:55:16;;;;;;;11.93;10.83;;;;;;;13.85;94.28;100960.53;5017055;28;20321;-53
2022/04/27 08:57:43;;;;;;;11.93;10.87;;;;;;;14.05;93.67;100962.06;5021005;28;20830;-51
2022/04/27 09:00:13;;;;;;;13.07;11.87;;;;;;;14.23;94.04;100955.72;5019027;28;20302;-52
2022/04/27 09:02:39;;;;;;;10.63;9.63;;;;;;;14.53;93.38;100957.91;5026142;28;20191;-52
2022/04/27 09:05:16;;;;;;;9.17;8.33;;;;;;;14.48;90.70;100958.88;5019935;28;20206;-52
2022/04/27 09:07:48;;;;;;;8.07;7.47;;;;;;;14.72;88.78;100951.59;5016313;28;20195;-52
2022/04/27 09:10:15;;;;;;;8.53;7.73;;;;;;;14.89;88.78;100948.72;5020875;28;20208;-51
2022/04/27 09:12:55;;;;;;;6.97;6.37;;;;;;;15.17;88.94;100943.03;5014853;28;20202;-52
2022/04/27 09:15:27;;;;;;;6.00;5.50;;;;;;;15.43;88.24;100944.31;5014703;28;20256;-51
2022/04/27 09:20:54;;;;;;;5.80;5.30;;;;;;;15.47;86.86;100948.59;5013581;28;20218;-52
2022/04/27 09:23:28;;;;;;;6.20;5.70;;;;;;;15.35;87.45;100954.03;5016531;28;20558;-51
2022/04/27 09:26:00;;;;;;;6.07;5.57;;;;;;;15.45;87.24;100957.31;5016200;28;20449;-52
2022/04/27 09:28:29;;;;;;;6.13;5.63;;;;;;;15.54;86.42;100947.56;5016402;28;20206;-51
2022/04/27 09:30:55;;;;;;;5.47;4.97;;;;;;;15.89;86.24;100953.00;5014542;28;20208;-51
2022/04/27 09:33:38;;;;;;;5.63;5.07;;;;;;;16.49;85.21;100956.06;5021816;28;20203;-51
2022/04/27 09:36:25;;;;;;;5.27;4.87;;;;;;;16.94;83.51;100949.78;5020592;28;20187;-51
2022/04/27 09:38:51;;;;;;;5.27;4.87;;;;;;;17.24;80.99;100951.72;5021043;28;20690;-52
2022/04/27 09:41:44;;;;;;;5.80;5.10;;;;;;;17.24;80.46;100952.56;5015939;28;20370;-51
2022/04/27 09:44:35;;;;;;;5.23;4.83;;;;;;;17.24;80.50;100949.94;5020665;28;20257;-52
2022/04/27 09:47:05;;;;;;;5.20;4.80;;;;;;;17.01;79.86;100950.53;5026940;28;20194;-52
2022/04/27 09:49:32;;;;;;;5.50;5.00;;;;;;;16.41;80.27;100958.84;5021241;28;20211;-52
2022/04/27 09:52:00;;;;;;;6.80;6.20;;;;;;;15.65;83.79;100959.56;5022282;28;20187;-53
2022/04/27 09:54:28;;;;;;;6.03;5.60;;;;;;;15.77;82.00;100955.84;5014533;28;20202;-53
2022/04/27 09:56:58;;;;;;;5.17;4.77;;;;;;;15.93;82.04;100962.50;5016950;28;20204;-52
2022/04/27 09:59:35;;;;;;;5.23;4.73;;;;;;;15.88;81.57;100964.38;5026781;28;20193;-53
2022/04/27 10:02:13;;;;;;;4.43;4.03;;;;;;;15.83;80.91;100955.72;5025156;28;20190;-52
2022/04/27 10:04:40;;;;;;;4.43;4.07;;;;;;;16.04;81.19;100959.69;5019196;28;20276;-52
2022/04/27 10:07:13;;;;;;;3.43;3.13;;;;;;;16.24;81.24;100942.72;5026697;28;20199;-52
2022/04/27 10:09:39;;;;;;;4.13;3.80;;;;;;;16.46;81.28;100953.56;5027388;28;20692;-52
2022/04/27 10:12:06;;;;;;;4.93;4.53;;;;;;;16.48;80.84;100951.78;5018025;28;20663;-53
2022/04/27 10:14:32;;;;;;;4.40;4.00;;;;;;;16.33;81.31;100944.28;5018581;28;20192;-52
2022/04/27 10:16:57;;;;;;;4.37;4.07;;;;;;;16.54;80.82;100943.78;5019634;28;20194;-52
2022/04/27 10:19:24;;;;;;;4.43;4.03;;;;;;;16.64;80.45;100946.19;5013170;28;20268;-52
2022/04/27 10:21:57;;;;;;;;;;;;;;;;;;;;;
2022/04/27 10:24:34;;;;;;;3.40;3.20;;;;;;;16.17;79.78;100942.00;5017078;28;20193;-52
2022/04/27 10:27:19;;;;;;;3.50;3.20;;;;;;;16.17;79.42;100949.84;5016563;28;20270;-52
2022/04/27 10:30:01;;;;;;;3.50;3.20;;;;;;;16.11;78.14;100942.97;5016567;28;20208;-51
2022/04/27 10:32:33;;;;;;;3.23;3.03;;;;;;;16.13;77.94;100942.97;5018938;28;20287;-52
2022/04/27 10:35:30;;;;;;;2.60;2.40;;;;;;;16.40;77.97;100941.50;5015331;28;20184;-52
2022/04/27 10:38:05;;;;;;;2.80;2.60;;;;;;;16.66;77.91;100932.19;5019725;28;20203;-52
2022/04/27 10:40:39;;;;;;;3.20;3.00;;;;;;;16.79;77.55;100942.31;5016821;28;20575;-52
2022/04/27 10:43:07;;;;;;;3.13;2.83;;;;;;;17.01;76.38;100930.50;5023859;28;20181;-53
2022/04/27 10:45:37;;;;;;;2.87;2.60;;;;;;;17.25;76.82;100935.97;5030061;28;20239;-52
2022/04/27 10:48:15;;;;;;;3.90;3.30;;;;;;;17.32;77.07;100939.28;5020704;28;20283;-53
2022/04/27 10:50:54;;;;;;;3.10;2.90;;;;;;;17.30;75.15;100931.47;5012926;28;22562;-52
2022/04/27 10:53:22;;;;;;;3.13;2.93;;;;;;;17.26;73.24;100932.44;5014840;28;20211;-52
2022/04/27 10:55:51;;;;;;;3.80;2.70;;;;;;;16.99;74.09;100926.16;5014115;28;20215;-52
2022/04/27 10:58:22;;;;;;;3.13;2.93;;;;;;;16.63;76.17;100932.25;5019941;28;20184;-52
2022/04/27 11:01:02;;;;;;;3.13;2.90;;;;;;;16.89;76.36;100934.22;5026841;28;20221;-52
2022/04/27 11:03:39;;;;;;;3.70;2.60;;;;;;;17.11;76.05;100931.09;5020547;28;20614;-52
2022/04/27 11:06:04;;;;;;;3.37;3.07;;;;;;;17.22;76.23;100938.66;5014668;28;20175;-53
2022/04/27 11:08:32;;;;;;;3.90;3.00;;;;;;;17.33;75.49;100926.13;5020068;28;20556;-52
2022/04/27 11:11:06;;;;;;;3.73;3.33;;;;;;;16.96;75.23;100939.31;5022111;28;20203;-52
2022/04/27 11:13:32;;;;;;;3.43;3.13;;;;;;;17.00;76.53;100939.22;5014777;28;20217;-52
2022/04/27 11:16:12;;;;;;;3.23;3.03;;;;;;;17.03;76.14;100938.28;5017474;28;20678;-52
2022/04/27 11:18:57;;;;;;;3.40;3.10;;;;;;;16.70;75.65;100932.94;5016289;28;20963;-52
2022/04/27 11:21:30;;;;;;;4.03;3.03;;;;;;;16.97;75.99;100927.97;5013695;28;20214;-52
2022/04/27 11:23:58;;;;;;;3.33;3.00;;;;;;;17.27;75.43;100926.31;5015736;28;20182;-52
2022/04/27 11:26:23;;;;;;;2.80;2.60;;;;;;;17.50;75.08;100924.81;5012208;28;20187;-52
2022/04/27 11:28:53;;;;;;;3.20;2.90;;;;;;;17.77;74.59;100927.59;5022700;28;20190;-52
2022/04/27 11:31:19;;;;;;;2.70;2.50;;;;;;;18.03;73.39;100926.81;5012725;28;20203;-52
2022/04/27 11:33:45;;;;;;;3.10;2.90;;;;;;;17.65;73.43;100931.41;5017560;28;20686;-52